Time;durP1;ratioP1;P1;durP2;ratioP2;P2;SDS_P1;SDS_P2;PMS_P1;PMS_P2;Temp;Humidity;BMP_temperature;BMP_pressure;BME280_temperature;BME280_humidity;BME280_pressure;Samples;Min_cycle;Max_cycle;Signal;HPM_P1;HPM_P2
2021/06/17 00:01:21;;;;;;;8.20;7.40;;;;;;;16.48;82.70;93704.66;5031451;28;20029;-43
2021/06/17 00:03:46;;;;;;;9.48;7.28;;;;;;;16.46;83.04;93698.19;5031088;28;20537;-42
2021/06/17 00:06:11;;;;;;;8.57;7.82;;;;;;;16.51;82.90;93700.00;5031401;28;20033;-41
2021/06/17 00:08:37;;;;;;;7.90;7.25;;;;;;;16.41;83.37;93699.22;5031361;28;20018;-41
2021/06/17 00:11:03;;;;;;;8.63;7.82;;;;;;;16.47;82.88;93691.31;5031316;28;20087;-42
2021/06/17 00:13:29;;;;;;;7.28;6.72;;;;;;;16.48;82.06;93693.50;5031006;28;20022;-41
2021/06/17 00:15:57;;;;;;;9.07;7.55;;;;;;;16.42;82.74;93687.47;5031246;28;20021;-42
2021/06/17 00:18:24;;;;;;;9.35;6.82;;;;;;;16.47;81.87;93686.47;5031215;28;20025;-43
2021/06/17 00:20:50;;;;;;;7.60;7.00;;;;;;;16.34;82.78;93680.56;5030964;28;20109;-41
2021/06/17 00:23:16;;;;;;;8.45;7.72;;;;;;;16.43;82.47;93675.03;5037107;28;20156;-42
2021/06/17 00:25:42;;;;;;;10.05;8.05;;;;;;;16.44;82.83;93670.16;5011202;28;20025;-40
2021/06/17 00:28:08;;;;;;;8.88;7.97;;;;;;;16.48;82.69;93671.22;4995975;28;20033;-41
2021/06/17 00:30:34;;;;;;;7.68;7.05;;;;;;;16.45;82.64;93669.59;4991524;28;20042;-39
2021/06/17 00:33:00;;;;;;;7.85;7.13;;;;;;;16.53;82.00;93659.09;4991595;28;20026;-43
2021/06/17 00:35:28;;;;;;;8.00;7.38;;;;;;;16.45;82.27;93661.25;4991411;28;20406;-39
2021/06/17 00:37:54;;;;;;;9.02;7.30;;;;;;;16.44;81.99;93656.97;4991009;28;20031;-40
2021/06/17 00:40:20;;;;;;;19.17;7.25;;;;;;;16.50;81.49;93651.16;4990370;28;20031;-40
2021/06/17 00:42:47;;;;;;;7.95;7.15;;;;;;;16.51;81.33;93647.78;5008565;28;20022;-39
2021/06/17 00:45:17;;;;;;;7.18;6.57;;;;;;;16.43;81.58;93652.00;5010616;28;20028;-39
2021/06/17 00:47:42;;;;;;;9.52;6.97;;;;;;;16.32;81.76;93646.97;5010481;28;20520;-39
2021/06/17 00:50:09;;;;;;;7.30;6.57;;;;;;;16.32;81.28;93646.97;5009765;28;20018;-39
2021/06/17 00:52:35;;;;;;;7.35;6.85;;;;;;;16.40;80.44;93642.75;5012871;28;20021;-38
2021/06/17 00:55:01;;;;;;;8.40;7.60;;;;;;;16.18;80.83;93643.84;5009176;28;20412;-40
2021/06/17 00:57:26;;;;;;;8.00;6.72;;;;;;;16.17;80.89;93639.59;5010545;28;20033;-41
2021/06/17 00:59:52;;;;;;;7.38;6.80;;;;;;;16.16;80.65;93634.59;5010035;28;20037;-45
2021/06/17 01:02:17;;;;;;;7.20;6.60;;;;;;;16.15;80.69;93642.22;5009718;28;20014;-44
2021/06/17 01:04:43;;;;;;;7.47;6.72;;;;;;;16.17;80.55;93642.38;5010163;28;20022;-43
2021/06/17 01:07:10;;;;;;;7.53;6.80;;;;;;;16.19;80.27;93639.75;5009603;28;20034;-43
2021/06/17 01:09:49;;;;;;;7.38;6.78;;;;;;;16.11;80.39;93628.00;5009853;28;20075;-42
2021/06/17 01:12:23;;;;;;;8.63;7.45;;;;;;;16.15;80.33;93635.91;5016336;28;20025;-42
2021/06/17 01:14:59;;;;;;;11.35;9.57;;;;;;;16.11;79.63;93628.00;5009881;28;20524;-42
2021/06/17 01:17:25;;;;;;;8.98;8.18;;;;;;;16.07;79.94;93633.25;5009204;28;20093;-43
2021/06/17 01:19:54;;;;;;;9.02;8.02;;;;;;;16.00;79.60;93625.75;5008777;28;20030;-43
2021/06/17 01:23:01;;;;;;;8.40;7.47;;;;;;;15.92;79.63;93628.63;5008447;28;20065;-41
2021/06/17 01:25:39;;;;;;;20.88;7.97;;;;;;;15.89;81.19;93627.03;4990619;28;20046;-42
2021/06/17 01:28:10;;;;;;;9.95;7.20;;;;;;;15.87;80.99;93626.13;4990330;28;20030;-42
2021/06/17 01:30:46;;;;;;;12.82;7.18;;;;;;;15.79;80.83;93617.13;4990549;28;20027;-42
2021/06/17 01:33:13;;;;;;;8.00;7.20;;;;;;;15.75;80.45;93619.63;4989367;28;20046;-43
2021/06/17 01:35:42;;;;;;;10.02;8.98;;;;;;;15.70;80.13;93617.84;4990583;28;20030;-42
2021/06/17 01:38:08;;;;;;;36.22;17.95;;;;;;;15.57;80.50;93623.78;4988500;28;20030;-41
2021/06/17 01:40:34;;;;;;;12.63;9.15;;;;;;;15.57;80.00;93609.88;5005440;28;20030;-41
2021/06/17 01:43:00;;;;;;;16.77;8.85;;;;;;;15.68;79.94;93620.47;5024618;28;20025;-41
2021/06/17 01:45:26;;;;;;;27.05;8.90;;;;;;;15.70;79.92;93623.41;5025106;28;20018;-44
2021/06/17 01:47:53;;;;;;;60.80;12.05;;;;;;;15.59;80.08;93610.75;5025235;28;20511;-43
2021/06/17 01:50:21;;;;;;;30.80;8.82;;;;;;;15.66;80.24;93614.72;5009917;28;20075;-41
2021/06/17 01:52:49;;;;;;;57.40;10.38;;;;;;;15.66;80.42;93614.72;5007566;28;20037;-42
2021/06/17 01:55:15;;;;;;;25.58;7.72;;;;;;;15.66;80.73;93618.25;5007884;28;20022;-42
2021/06/17 01:57:41;;;;;;;38.97;10.00;;;;;;;15.68;80.74;93603.78;5009653;28;20026;-39
2021/06/17 02:00:07;;;;;;;20.17;8.48;;;;;;;15.72;80.40;93615.22;5009798;28;20045;-41
2021/06/17 02:02:35;;;;;;;29.27;8.23;;;;;;;15.71;80.25;93602.59;5009875;28;20041;-40
2021/06/17 02:05:00;;;;;;;42.45;8.88;;;;;;;15.66;80.03;93607.13;5024755;28;20053;-41
2021/06/17 02:07:26;;;;;;;40.08;11.02;;;;;;;15.54;80.28;93613.78;5008599;28;20026;-40
2021/06/17 02:09:52;;;;;;;24.05;7.32;;;;;;;15.49;80.26;93617.56;5009857;28;20022;-41
2021/06/17 02:12:19;;;;;;;15.95;7.10;;;;;;;15.48;79.75;93616.09;5009860;28;20026;-39
2021/06/17 02:14:46;;;;;;;27.95;6.60;;;;;;;15.29;79.99;93594.44;5009117;28;20040;-40
2021/06/17 02:17:14;;;;;;;23.08;7.85;;;;;;;15.17;81.61;93613.69;5024683;28;20120;-40
2021/06/17 02:19:40;;;;;;;19.00;6.57;;;;;;;15.13;81.05;93615.41;5008333;28;20033;-40
2021/06/17 02:22:07;;;;;;;25.20;7.03;;;;;;;15.13;81.08;93621.72;5009373;28;20033;-40
2021/06/17 02:24:35;;;;;;;20.80;8.35;;;;;;;15.08;82.20;93619.91;5009595;28;20026;-39
2021/06/17 02:27:04;;;;;;;22.02;7.60;;;;;;;15.12;82.25;93609.09;5008616;28;20025;-40
2021/06/17 02:29:33;;;;;;;24.67;7.45;;;;;;;15.18;81.56;93620.00;5009394;28;20029;-39
2021/06/17 02:32:00;;;;;;;13.45;6.35;;;;;;;15.15;81.47;93619.09;5009764;28;20084;-40
2021/06/17 02:34:26;;;;;;;21.15;7.32;;;;;;;15.17;81.85;93630.38;5008454;28;20049;-43
2021/06/17 02:36:51;;;;;;;12.75;6.50;;;;;;;15.11;81.12;93627.13;5008264;28;20033;-42
2021/06/17 02:39:20;;;;;;;12.45;7.22;;;;;;;15.14;81.69;93639.84;5007951;28;20062;-41
2021/06/17 02:41:50;;;;;;;20.08;7.20;;;;;;;15.26;81.20;93631.75;5024772;28;20045;-41
2021/06/17 02:44:17;;;;;;;21.17;7.40;;;;;;;15.31;81.28;93627.97;5009460;28;20087;-41
2021/06/17 02:46:43;;;;;;;14.23;6.97;;;;;;;15.28;81.50;93633.94;5008476;28;20107;-43
2021/06/17 02:49:09;;;;;;;39.00;8.00;;;;;;;15.22;81.79;93631.44;5008930;28;20497;-41
2021/06/17 02:51:34;;;;;;;18.73;8.63;;;;;;;15.17;82.11;93630.38;5016562;28;20059;-41
2021/06/17 02:54:00;;;;;;;14.70;8.23;;;;;;;15.15;82.70;93635.78;5028079;28;20108;-42
2021/06/17 02:56:37;;;;;;;16.98;7.57;;;;;;;15.20;82.44;93642.41;5025568;28;20041;-41
2021/06/17 02:59:06;;;;;;;11.15;8.25;;;;;;;15.10;82.77;93636.00;5015932;28;20056;-41
2021/06/17 03:01:56;;;;;;;15.32;8.10;;;;;;;15.13;82.63;93641.19;5000280;28;20065;-41
2021/06/17 03:04:34;;;;;;;11.13;9.00;;;;;;;15.20;82.85;93650.75;5004968;28;20038;-42
2021/06/17 03:07:01;;;;;;;15.00;7.63;;;;;;;15.18;82.76;93648.53;5009536;28;20025;-42
2021/06/17 03:09:33;;;;;;;12.20;6.07;;;;;;;15.24;82.02;93647.53;5012106;28;20452;-42
2021/06/17 03:11:59;;;;;;;19.95;7.30;;;;;;;15.15;82.16;93649.69;5011147;28;20038;-41
2021/06/17 03:14:29;;;;;;;24.92;7.88;;;;;;;15.10;82.02;93653.44;5011850;28;20512;-40
2021/06/17 03:16:56;;;;;;;75.20;11.60;;;;;;;15.18;80.90;93664.50;5009397;28;20018;-40
2021/06/17 03:19:22;;;;;;;60.78;8.45;;;;;;;15.14;80.71;93648.19;5012203;28;20068;-41
2021/06/17 03:21:55;;;;;;;29.55;8.07;;;;;;;15.21;80.15;93652.19;5011031;28;20493;-42
2021/06/17 03:24:28;;;;;;;22.67;8.23;;;;;;;15.00;80.58;93629.66;5010758;28;20421;-43
2021/06/17 03:26:55;;;;;;;24.33;7.50;;;;;;;15.07;81.46;93649.03;5018236;28;20029;-42
2021/06/17 03:29:24;;;;;;;39.22;7.63;;;;;;;15.16;81.81;93651.16;5000592;28;20026;-42
2021/06/17 03:31:50;;;;;;;49.97;8.07;;;;;;;15.08;81.35;93652.53;5011159;28;20026;-43
2021/06/17 03:34:16;;;;;;;43.30;7.80;;;;;;;15.10;81.26;93652.69;5026799;28;20488;-41
2021/06/17 03:36:42;;;;;;;25.65;7.00;;;;;;;15.15;81.14;93660.81;5009721;28;20029;-41
2021/06/17 03:39:08;;;;;;;19.13;6.22;;;;;;;15.16;81.30;93667.84;5009624;28;20045;-42
2021/06/17 03:41:33;;;;;;;27.48;8.20;;;;;;;15.18;81.34;93664.50;5010137;28;20033;-42
2021/06/17 03:44:01;;;;;;;14.43;6.43;;;;;;;15.24;81.53;93676.09;5018397;28;20038;-45
2021/06/17 03:46:28;;;;;;;29.67;8.27;;;;;;;15.30;81.53;93673.06;5000885;28;20165;-43
2021/06/17 03:48:56;;;;;;;12.45;5.80;;;;;;;15.19;81.94;93671.50;5011636;28;20084;-43
2021/06/17 03:51:21;;;;;;;24.10;8.50;;;;;;;15.14;81.91;93673.22;5012336;28;20076;-42
2021/06/17 03:53:47;;;;;;;15.15;5.93;;;;;;;15.32;81.73;93678.78;5011680;28;20029;-42
2021/06/17 03:56:14;;;;;;;8.98;5.60;;;;;;;15.32;81.66;93670.44;5008896;28;20097;-42
2021/06/17 03:58:42;;;;;;;30.48;7.82;;;;;;;15.36;81.07;93679.09;5011028;28;20026;-42
2021/06/17 04:01:09;;;;;;;8.88;6.00;;;;;;;15.39;80.91;93675.19;5010311;28;20040;-41
2021/06/17 04:03:35;;;;;;;10.75;5.90;;;;;;;15.39;80.04;93678.69;5010246;28;20025;-41
2021/06/17 04:06:01;;;;;;;17.05;7.00;;;;;;;15.43;79.05;93690.19;5010849;28;20160;-44
2021/06/17 04:08:29;;;;;;;20.33;7.05;;;;;;;15.40;78.67;93687.78;5009430;28;20543;-43
2021/06/17 04:11:00;;;;;;;10.10;6.13;;;;;;;15.45;79.50;93687.56;5004640;28;20509;-39
2021/06/17 04:13:28;;;;;;;23.95;7.13;;;;;;;15.51;79.24;93690.06;5009468;28;20036;-43
2021/06/17 04:15:55;;;;;;;14.52;6.40;;;;;;;15.54;78.08;93692.47;5010628;28;20025;-42
2021/06/17 04:18:23;;;;;;;9.55;6.20;;;;;;;15.57;79.02;93691.28;5010511;28;20037;-42
2021/06/17 04:20:49;;;;;;;7.50;6.78;;;;;;;15.64;79.60;93692.50;5009620;28;20022;-44
2021/06/17 04:23:17;;;;;;;32.60;7.68;;;;;;;15.66;79.25;93692.66;5006640;28;20382;-42
2021/06/17 04:25:43;;;;;;;20.48;6.53;;;;;;;15.67;78.64;93694.88;5009454;28;20180;-41
2021/06/17 04:28:10;;;;;;;9.18;6.10;;;;;;;15.72;78.89;93684.81;5009238;28;20056;-41
2021/06/17 04:30:36;;;;;;;5.63;4.90;;;;;;;15.86;78.08;93685.91;5016984;28;20022;-42
2021/06/17 04:33:04;;;;;;;5.97;4.78;;;;;;;15.91;78.37;93698.84;5000737;28;20764;-42
2021/06/17 04:35:31;;;;;;;5.13;4.75;;;;;;;15.96;78.97;93694.31;5003410;28;20026;-41
2021/06/17 04:37:57;;;;;;;6.93;5.75;;;;;;;15.87;79.33;93688.09;5010364;28;20034;-43
2021/06/17 04:40:23;;;;;;;21.33;7.28;;;;;;;16.04;79.43;93684.53;5010643;28;20041;-40
2021/06/17 04:42:50;;;;;;;39.58;7.47;;;;;;;16.10;79.59;93689.84;5010692;28;20022;-41
2021/06/17 04:45:16;;;;;;;42.92;9.43;;;;;;;16.09;79.01;93688.38;5010583;28;20490;-42
2021/06/17 04:47:48;;;;;;;47.20;9.88;;;;;;;15.97;79.62;93676.28;5010938;28;20148;-43
2021/06/17 04:50:15;;;;;;;12.50;7.85;;;;;;;16.26;79.73;93693.88;5011135;28;20026;-43
2021/06/17 04:53:08;;;;;;;29.98;7.45;;;;;;;16.37;79.13;93696.84;5010760;28;20041;-43
2021/06/17 04:55:39;;;;;;;8.15;7.35;;;;;;;16.52;79.47;93704.28;5010590;28;20520;-42
2021/06/17 04:58:04;;;;;;;23.15;7.07;;;;;;;16.57;79.16;93700.47;5025709;28;20412;-43
2021/06/17 05:00:29;;;;;;;12.15;8.90;;;;;;;16.66;79.43;93705.34;5010382;28;20034;-45
2021/06/17 05:02:55;;;;;;;16.02;9.50;;;;;;;16.63;79.36;93698.88;5010332;28;20034;-42
2021/06/17 05:05:20;;;;;;;13.05;8.98;;;;;;;16.68;79.70;93700.66;5010363;28;20036;-42
2021/06/17 05:12:56;;;;;;;6.70;6.20;;;;;;;16.65;78.53;93673.22;5010313;28;20511;-44
2021/06/17 05:15:21;;;;;;;6.07;5.57;;;;;;;16.85;78.67;93691.44;5010128;28;20037;-42
2021/06/17 05:17:47;;;;;;;6.68;6.05;;;;;;;16.91;77.92;93699.53;5010120;28;20037;-44
2021/06/17 05:20:13;;;;;;;5.22;4.72;;;;;;;16.81;77.80;93699.50;5010120;28;20096;-44
2021/06/17 05:22:40;;;;;;;6.60;6.10;;;;;;;16.89;78.79;93700.09;5008307;28;20413;-43
2021/06/17 05:25:06;;;;;;;8.35;6.95;;;;;;;17.00;79.56;93707.19;5010223;28;20097;-43
2021/06/17 05:27:32;;;;;;;6.75;6.25;;;;;;;17.15;79.29;93707.63;5009724;28;20569;-43
2021/06/17 05:29:57;;;;;;;5.95;5.45;;;;;;;17.25;78.49;93702.06;5009759;28;20029;-44
2021/06/17 05:32:24;;;;;;;5.55;5.15;;;;;;;17.38;77.61;93713.53;5008803;28;20028;-44
2021/06/17 05:34:50;;;;;;;5.93;5.50;;;;;;;17.40;77.39;93719.25;5009753;28;20100;-43
2021/06/17 05:37:16;;;;;;;11.13;5.72;;;;;;;17.48;77.57;93718.41;5006003;28;20394;-42
2021/06/17 05:39:42;;;;;;;7.72;5.95;;;;;;;17.44;77.34;93722.34;5007423;28;20045;-43
2021/06/17 05:42:08;;;;;;;5.63;5.22;;;;;;;17.42;76.97;93729.84;5000955;28;20033;-42
2021/06/17 05:44:34;;;;;;;7.80;6.75;;;;;;;17.29;77.17;93730.25;5008774;28;20689;-44
2021/06/17 05:47:00;;;;;;;7.97;6.93;;;;;;;17.21;78.14;93740.84;5008833;28;20038;-42
2021/06/17 05:49:25;;;;;;;9.73;8.73;;;;;;;17.12;79.06;93747.13;5008635;28;20030;-44
2021/06/17 05:51:51;;;;;;;8.98;8.27;;;;;;;17.16;78.83;93739.06;5008962;28;20026;-43
2021/06/17 05:54:17;;;;;;;9.63;8.48;;;;;;;17.04;79.53;93744.50;5008870;28;20038;-42
2021/06/17 05:56:42;;;;;;;6.95;6.35;;;;;;;16.95;79.04;93747.25;5008942;28;20413;-41
2021/06/17 05:59:08;;;;;;;7.25;6.55;;;;;;;16.84;80.42;93736.66;5008423;28;20802;-40
2021/06/17 06:01:33;;;;;;;7.68;6.95;;;;;;;16.85;80.72;93729.75;5008686;28;20499;-41
2021/06/17 06:03:59;;;;;;;59.47;54.83;;;;;;;16.98;81.01;93730.06;5007745;28;20053;-42
2021/06/17 06:06:24;;;;;;;24.52;22.90;;;;;;;17.04;81.05;93735.38;5006436;28;20033;-42
2021/06/17 06:08:50;;;;;;;7.43;6.93;;;;;;;17.20;81.49;93728.94;5007847;28;20030;-41
2021/06/17 06:11:15;;;;;;;9.50;8.65;;;;;;;17.25;81.49;93729.97;5008606;28;20026;-41
2021/06/17 06:13:41;;;;;;;6.43;5.93;;;;;;;17.42;80.38;93735.41;5008806;28;20467;-41
2021/06/17 06:16:06;;;;;;;6.40;5.65;;;;;;;17.51;79.25;93740.31;5008892;28;20034;-40
2021/06/17 06:18:32;;;;;;;7.10;6.55;;;;;;;17.47;80.04;93714.88;5008243;28;20506;-40
2021/06/17 06:20:58;;;;;;;6.97;6.35;;;;;;;17.64;79.71;93731.50;5008685;28;20072;-41
2021/06/17 06:23:27;;;;;;;8.15;7.45;;;;;;;17.80;80.85;93734.72;4998022;28;20724;-40
2021/06/17 06:25:53;;;;;;;7.00;6.28;;;;;;;18.06;79.68;93737.31;4998049;28;20417;-41
2021/06/17 06:28:22;;;;;;;5.80;5.40;;;;;;;18.26;79.39;93740.06;4993661;28;20048;-40
2021/06/17 06:30:50;;;;;;;7.82;7.13;;;;;;;18.55;79.35;93740.72;5007297;28;20656;-41
2021/06/17 06:33:16;;;;;;;10.75;7.18;;;;;;;18.78;78.52;93744.47;4995782;28;20034;-41
2021/06/17 06:35:42;;;;;;;12.80;7.57;;;;;;;18.98;77.05;93745.09;5001534;28;20520;-41
2021/06/17 06:38:07;;;;;;;9.95;6.15;;;;;;;19.16;74.84;93749.13;5008996;28;20034;-43
2021/06/17 06:40:33;;;;;;;6.15;4.93;;;;;;;19.30;74.10;93755.66;5012677;28;20576;-43
2021/06/17 06:42:59;;;;;;;20.75;6.38;;;;;;;19.39;74.08;93751.34;5012001;28;20413;-41
2021/06/17 06:45:25;;;;;;;7.30;6.60;;;;;;;19.47;74.66;93755.44;5012104;28;20033;-42
2021/06/17 06:47:51;;;;;;;7.65;5.80;;;;;;;19.52;74.09;93753.63;5012257;28;20056;-41
2021/06/17 06:50:17;;;;;;;6.63;6.03;;;;;;;19.61;73.61;93752.84;5012401;28;20463;-43
2021/06/17 06:52:43;;;;;;;6.93;5.78;;;;;;;19.72;73.89;93746.56;5028495;28;20021;-42
2021/06/17 06:55:08;;;;;;;6.30;5.80;;;;;;;19.76;73.99;93740.47;5031576;28;20055;-42
2021/06/17 06:57:35;;;;;;;6.07;5.55;;;;;;;19.95;71.87;93754.31;5047276;28;20039;-41
2021/06/17 07:00:00;;;;;;;6.15;5.68;;;;;;;20.08;71.63;93757.28;5031342;28;20064;-42
2021/06/17 07:02:26;;;;;;;6.40;5.72;;;;;;;20.13;71.87;93761.81;5012085;28;20068;-43
2021/06/17 07:04:51;;;;;;;5.88;5.43;;;;;;;20.28;69.52;93761.41;5011985;28;20072;-44
2021/06/17 07:07:17;;;;;;;6.40;5.80;;;;;;;20.35;70.50;93760.47;5011540;28;20034;-43
2021/06/17 07:09:42;;;;;;;7.15;6.45;;;;;;;20.46;71.40;93759.03;5011522;28;20080;-41
2021/06/17 07:12:08;;;;;;;7.35;5.93;;;;;;;20.40;70.85;93755.81;5011218;28;20030;-42
2021/06/17 07:14:34;;;;;;;5.88;5.38;;;;;;;20.33;70.05;93742.78;5017167;28;20487;-43
2021/06/17 07:16:59;;;;;;;6.90;6.30;;;;;;;20.32;70.95;93738.50;5011030;28;20168;-42
2021/06/17 07:19:25;;;;;;;7.05;6.38;;;;;;;20.46;70.32;93742.19;5015724;28;20061;-45
2021/06/17 07:21:51;;;;;;;6.75;5.10;;;;;;;20.59;70.13;93744.41;5011300;28;20072;-42
2021/06/17 07:24:17;;;;;;;5.95;5.45;;;;;;;20.79;69.99;93745.63;5023223;28;20040;-42
2021/06/17 07:26:42;;;;;;;6.75;6.05;;;;;;;20.82;68.82;93747.22;5031221;28;20520;-42
2021/06/17 07:29:08;;;;;;;6.95;5.43;;;;;;;21.25;68.59;93746.97;5030108;28;20029;-44
2021/06/17 07:31:33;;;;;;;7.53;5.80;;;;;;;21.61;69.66;93747.03;5029799;28;20052;-42
2021/06/17 07:33:59;;;;;;;5.70;5.20;;;;;;;22.05;67.55;93748.13;5024959;28;20123;-41
2021/06/17 07:36:25;;;;;;;6.18;4.65;;;;;;;22.93;63.37;93752.31;5009589;28;20068;-43
2021/06/17 07:38:50;;;;;;;5.72;4.57;;;;;;;24.09;60.71;93747.06;5009215;28;20493;-42
2021/06/17 07:41:16;;;;;;;4.32;4.00;;;;;;;25.24;57.34;93749.59;5009110;28;20449;-42
2021/06/17 07:43:41;;;;;;;3.78;3.47;;;;;;;26.60;52.02;93750.38;5009691;28;20125;-44
2021/06/17 07:46:07;;;;;;;4.28;3.50;;;;;;;27.47;48.44;93746.66;5010678;28;20096;-44
2021/06/17 07:48:33;;;;;;;3.65;3.13;;;;;;;28.19;46.89;93747.75;5010888;28;20026;-41
2021/06/17 07:50:59;;;;;;;3.63;3.00;;;;;;;29.25;44.55;93744.75;5013185;28;20036;-41
2021/06/17 07:53:25;;;;;;;4.00;2.72;;;;;;;30.09;41.48;93745.63;5030516;28;20029;-42
2021/06/17 07:55:50;;;;;;;4.25;2.60;;;;;;;30.98;39.13;93740.75;5030527;28;20112;-44
2021/06/17 07:58:16;;;;;;;3.83;2.55;;;;;;;31.92;37.67;93749.88;5015478;28;20084;-45
2021/06/17 08:00:42;;;;;;;5.72;2.72;;;;;;;32.44;36.96;93753.69;5010860;28;20026;-43
2021/06/17 08:03:08;;;;;;;3.35;2.63;;;;;;;32.14;37.08;93756.00;5010872;28;20681;-44
2021/06/17 08:05:34;;;;;;;5.05;2.70;;;;;;;32.67;37.05;93746.97;5010577;28;20041;-43
2021/06/17 08:08:00;;;;;;;2.63;2.47;;;;;;;33.02;33.70;93750.38;5010608;28;20038;-42
2021/06/17 08:10:25;;;;;;;4.40;2.75;;;;;;;32.64;33.21;93742.59;5010709;28;20030;-44
2021/06/17 08:12:51;;;;;;;2.78;2.58;;;;;;;32.86;34.72;93748.69;5010141;28;20486;-43
2021/06/17 08:15:16;;;;;;;4.68;3.97;;;;;;;33.30;34.72;93747.91;5010147;28;20040;-41
2021/06/17 08:17:42;;;;;;;5.47;3.22;;;;;;;33.52;34.90;93743.25;5010224;28;20053;-41
2021/06/17 08:20:09;;;;;;;6.22;2.72;;;;;;;33.69;34.02;93732.69;5010214;28;20448;-42
2021/06/17 08:22:36;;;;;;;5.65;2.75;;;;;;;33.19;33.81;93735.59;5009857;28;20045;-42
2021/06/17 08:25:02;;;;;;;3.88;3.00;;;;;;;31.82;36.96;93738.97;5010092;28;20092;-41
2021/06/17 08:27:28;;;;;;;3.33;3.03;;;;;;;30.47;38.78;93749.50;5024781;28;20038;-41
2021/06/17 08:29:53;;;;;;;4.97;3.13;;;;;;;29.33;41.82;93741.38;5011078;28;20084;-43
2021/06/17 08:32:19;;;;;;;3.35;3.15;;;;;;;28.67;44.43;93734.41;5019315;28;20032;-41
2021/06/17 08:34:44;;;;;;;3.75;3.35;;;;;;;28.19;45.20;93728.59;5024770;28;20413;-44
2021/06/17 08:37:10;;;;;;;3.42;3.05;;;;;;;27.49;47.12;93743.91;5018452;28;20468;-41
2021/06/17 08:39:36;;;;;;;3.72;3.13;;;;;;;26.85;48.30;93744.31;5019487;28;20057;-42
2021/06/17 08:42:03;;;;;;;6.15;3.53;;;;;;;26.28;50.22;93739.25;5018799;28;20109;-41
2021/06/17 08:44:29;;;;;;;10.13;4.47;;;;;;;25.84;52.41;93733.81;5010052;28;20033;-39
2021/06/17 08:46:55;;;;;;;7.50;3.97;;;;;;;25.44;52.63;93738.50;5009997;28;20037;-43
2021/06/17 08:49:23;;;;;;;5.30;4.10;;;;;;;25.41;54.25;93728.44;5009673;28;20046;-43
2021/06/17 08:51:49;;;;;;;6.78;3.67;;;;;;;25.55;53.06;93731.91;5024552;28;20525;-41
2021/06/17 08:54:19;;;;;;;12.77;3.65;;;;;;;26.37;51.69;93725.41;5009485;28;20037;-42
2021/06/17 08:56:46;;;;;;;3.97;3.58;;;;;;;27.67;47.54;93726.81;5009796;28;20060;-44
2021/06/17 08:59:13;;;;;;;5.03;3.30;;;;;;;28.68;46.20;93721.66;5009290;28;20047;-46
2021/06/17 09:01:39;;;;;;;3.97;3.47;;;;;;;29.22;43.10;93729.72;5008570;28;20084;-42
2021/06/17 09:04:26;;;;;;;3.58;3.22;;;;;;;29.08;43.58;93725.72;5008345;28;20069;-46
2021/06/17 09:07:09;;;;;;;3.80;3.50;;;;;;;29.22;43.90;93729.00;5009406;28;20061;-48
2021/06/17 09:09:41;;;;;;;3.20;2.90;;;;;;;29.68;41.40;93727.47;5008582;28;20068;-46
2021/06/17 09:12:09;;;;;;;4.15;3.28;;;;;;;30.65;42.30;93707.16;5027702;28;20108;-45
2021/06/17 09:14:35;;;;;;;4.72;3.22;;;;;;;31.52;38.52;93712.69;5020177;28;20473;-46
2021/06/17 09:17:04;;;;;;;3.63;3.33;;;;;;;32.05;37.07;93711.56;5009023;28;20068;-48
2021/06/17 09:19:59;;;;;;;3.95;2.60;;;;;;;32.22;36.47;93709.72;5021438;28;20037;-47
2021/06/17 09:22:26;;;;;;;2.60;2.40;;;;;;;32.93;34.10;93706.59;5025185;28;20041;-46
2021/06/17 09:24:53;;;;;;;3.03;2.70;;;;;;;32.44;36.32;93716.53;5009483;28;20156;-46
2021/06/17 09:27:26;;;;;;;7.25;2.55;;;;;;;32.17;37.47;93717.50;5010042;28;20112;-46
2021/06/17 09:29:54;;;;;;;2.90;2.70;;;;;;;32.06;35.33;93710.16;5029157;28;20525;-46
2021/06/17 09:32:30;;;;;;;3.30;2.30;;;;;;;31.93;34.40;93711.31;5021550;28;20021;-47
2021/06/17 09:34:56;;;;;;;3.45;2.90;;;;;;;31.56;35.40;93707.03;5020537;28;20037;-46
2021/06/17 09:37:37;;;;;;;5.18;2.50;;;;;;;32.04;35.06;93705.13;5017885;28;20663;-46
2021/06/17 09:40:26;;;;;;;4.90;2.40;;;;;;;31.84;34.88;93712.56;5009527;28;20049;-47
2021/06/17 09:43:15;;;;;;;2.97;2.50;;;;;;;31.02;35.95;93709.47;5008945;28;20117;-48
2021/06/17 09:45:41;;;;;;;;;;;;;;;30.68;37.10;93715.09;5009816;28;20030;-47
2021/06/17 09:48:35;;;;;;;3.03;2.60;;;;;;;30.11;38.46;93722.91;5008964;28;20313;-46
2021/06/17 09:51:33;;;;;;;3.85;2.97;;;;;;;29.30;40.29;93717.88;5008471;28;20030;-45
2021/06/17 09:54:06;;;;;;;3.33;3.10;;;;;;;28.37;43.60;93709.31;5013201;28;20514;-47
2021/06/17 09:56:34;;;;;;;4.80;3.75;;;;;;;27.67;45.87;93718.28;5008777;28;20037;-45
2021/06/17 09:59:00;;;;;;;4.03;3.63;;;;;;;27.21;47.25;93714.50;5008603;28;20033;-46
2021/06/17 10:01:42;;;;;;;5.38;3.65;;;;;;;27.00;48.08;93707.38;5008905;28;20038;-45
2021/06/17 10:04:09;;;;;;;3.80;3.50;;;;;;;27.18;45.12;93709.41;5008930;28;20045;-45
2021/06/17 10:06:36;;;;;;;8.45;3.72;;;;;;;27.51;45.21;93695.03;5010939;28;20104;-45
2021/06/17 10:09:09;;;;;;;5.97;2.88;;;;;;;28.54;42.82;93699.91;5028115;28;20033;-44
2021/06/17 10:11:35;;;;;;;3.30;2.95;;;;;;;29.39;41.45;93696.06;5026143;28;20505;-44
2021/06/17 10:14:01;;;;;;;6.78;3.33;;;;;;;30.24;38.54;93685.50;5010737;28;20053;-47
2021/06/17 10:16:28;;;;;;;16.08;4.03;;;;;;;30.80;38.27;93677.56;5010861;28;20085;-46
2021/06/17 10:18:54;;;;;;;6.07;3.00;;;;;;;30.79;36.52;93683.97;5010841;28;20120;-44
2021/06/17 10:21:19;;;;;;;3.80;2.80;;;;;;;30.11;36.10;93680.19;5010119;28;20018;-42
2021/06/17 10:23:47;;;;;;;5.30;2.60;;;;;;;29.48;38.83;93684.22;5013303;28;20026;-43
2021/06/17 10:26:13;;;;;;;8.32;3.45;;;;;;;28.90;40.93;93688.22;5010561;28;20037;-44
2021/06/17 10:28:44;;;;;;;4.10;3.30;;;;;;;28.71;41.94;93684.13;5010542;28;20060;-43
2021/06/17 10:31:11;;;;;;;3.75;2.83;;;;;;;29.11;41.00;93681.72;5012046;28;20036;-42
2021/06/17 10:33:38;;;;;;;5.88;2.90;;;;;;;29.06;39.00;93680.88;5023254;28;20107;-41
2021/06/17 10:36:24;;;;;;;4.15;3.17;;;;;;;29.24;39.12;93680.69;5013554;28;20804;-40
2021/06/17 10:39:05;;;;;;;2.88;2.55;;;;;;;29.95;39.54;93675.53;5002834;28;20555;-40
2021/06/17 10:41:52;;;;;;;3.10;2.90;;;;;;;30.52;35.99;93685.47;5029745;28;20047;-40
2021/06/17 10:44:48;;;;;;;2.97;2.72;;;;;;;30.70;37.71;93675.25;5030172;28;20029;-40
2021/06/17 10:50:18;;;;;;;6.10;3.10;;;;;;;30.52;36.71;93677.66;5029053;28;20630;-41
2021/06/17 10:52:44;;;;;;;4.40;2.78;;;;;;;29.90;37.08;93678.97;5029278;28;20029;-40
2021/06/17 10:55:12;;;;;;;2.90;2.67;;;;;;;29.39;38.30;93676.16;5008649;28;20092;-41
2021/06/17 11:00:21;;;;;;;3.20;2.97;;;;;;;27.98;40.47;93666.84;4989616;28;20046;-40
2021/06/17 11:02:47;;;;;;;7.65;7.25;;;;;;;27.55;41.94;93661.84;4989915;28;20057;-40
2021/06/17 11:05:34;;;;;;;4.45;3.10;;;;;;;26.82;42.79;93669.13;4989327;28;20708;-40
2021/06/17 11:08:22;;;;;;;3.90;3.50;;;;;;;26.28;45.06;93662.06;4990416;28;20031;-40
2021/06/17 11:10:48;;;;;;;12.38;3.85;;;;;;;25.91;47.07;93665.53;5004666;28;20173;-40
2021/06/17 11:13:37;;;;;;;5.47;3.70;;;;;;;25.83;49.00;93658.81;4989869;28;20116;-40
2021/06/17 11:16:25;;;;;;;3.70;3.40;;;;;;;25.53;47.51;93661.84;4989835;28;20022;-42
2021/06/17 11:19:08;;;;;;;4.97;3.60;;;;;;;25.45;47.93;93658.69;4986503;28;20591;-41
2021/06/17 11:21:33;;;;;;;6.57;4.30;;;;;;;25.36;49.02;93659.69;4989324;28;20117;-40
2021/06/17 11:24:10;;;;;;;3.80;3.50;;;;;;;25.21;49.38;93666.09;5003266;28;20101;-40
2021/06/17 11:26:41;;;;;;;6.88;3.85;;;;;;;25.05;50.27;93664.69;5009570;28;20041;-40
2021/06/17 11:29:08;;;;;;;4.95;4.50;;;;;;;24.84;52.25;93663.78;5009134;28;20113;-41
2021/06/17 11:32:03;;;;;;;4.75;4.28;;;;;;;24.76;53.36;93671.16;5008930;28;20036;-40
2021/06/17 11:34:28;;;;;;;4.75;3.97;;;;;;;24.58;53.51;93675.97;5008816;28;20069;-40
2021/06/17 11:36:56;;;;;;;5.35;4.88;;;;;;;24.72;53.59;93670.94;5009249;28;20175;-41
2021/06/17 11:39:23;;;;;;;5.18;4.40;;;;;;;24.86;53.44;93653.94;5008615;28;20050;-40
2021/06/17 11:41:49;;;;;;;5.93;5.03;;;;;;;25.02;53.65;93665.94;5005424;28;20042;-39
2021/06/17 11:44:25;;;;;;;5.25;4.28;;;;;;;25.10;52.65;93652.19;5007872;28;20037;-40
2021/06/17 11:46:52;;;;;;;4.82;4.43;;;;;;;25.30;53.51;93650.94;5008731;28;20028;-40
2021/06/17 11:49:18;;;;;;;4.20;3.70;;;;;;;25.55;50.79;93644.25;5007513;28;20096;-40